Time;durP1;ratioP1;P1;durP2;ratioP2;P2;SDS_P1;SDS_P2;PMS_P1;PMS_P2;Temp;Humidity;BMP_temperature;BMP_pressure;BME280_temperature;BME280_humidity;BME280_pressure;Samples;Min_cycle;Max_cycle;Signal;HPM_P1;HPM_P2
2022/07/01 04:04:08;;;;;;;0.93;0.88;;;17.40;85.60;;;;;;5059365;27;21184;-65
2022/07/01 04:06:35;;;;;;;1.65;1.20;;;17.30;90.40;;;;;;5079214;28;20727;-65
2022/07/01 04:09:02;;;;;;;4.72;1.55;;;17.20;91.50;;;;;;5049605;28;20700;-66
2022/07/01 04:11:29;;;;;;;5.97;1.20;;;17.50;91.10;;;;;;5070336;28;20219;-66
2022/07/01 04:13:56;;;;;;;2.38;1.30;;;19.50;92.70;;;;;;5074507;27;20239;-65
2022/07/01 04:16:23;;;;;;;3.90;1.52;;;17.30;90.80;;;;;;5044849;28;20208;-66
2022/07/01 04:18:50;;;;;;;6.78;1.40;;;17.30;90.80;;;;;;5081497;28;20196;-66
2022/07/01 04:24:09;;;;;;;3.42;1.40;;;17.30;91.10;;;;;;5006960;28;20696;-65
2022/07/01 04:26:36;;;;;;;3.65;1.20;;;17.40;91.30;;;;;;5060906;28;20630;-66
2022/07/01 04:29:03;;;;;;;3.58;1.02;;;17.40;91.30;;;;;;5069554;28;20219;-66
2022/07/01 04:31:31;;;;;;;2.67;1.15;;;17.40;91.60;;;;;;5042815;28;20938;-67
2022/07/01 04:33:58;;;;;;;3.63;1.20;;;;;;;;;;5077414;28;20280;-66
2022/07/01 04:36:27;;;;;;;6.28;1.20;;;17.40;90.30;;;;;;5072630;28;20223;-67
2022/07/01 04:38:54;;;;;;;2.58;1.30;;;17.30;86.90;;;;;;5056087;28;20220;-66
2022/07/01 04:44:12;;;;;;;3.03;1.25;;;17.30;84.70;;;;;;5059454;28;20545;-68
2022/07/01 04:46:39;;;;;;;3.03;1.25;;;17.30;84.90;;;;;;5058574;28;20594;-66
2022/07/01 04:49:06;;;;;;;1.45;1.35;;;17.60;88.30;;;;;;5077258;28;20199;-66
2022/07/01 04:51:35;;;;;;;3.60;1.60;;;17.30;84.40;;;;;;5072187;28;20242;-67
2022/07/01 04:54:01;;;;;;;3.33;1.95;;;17.10;82.50;;;;;;5055529;28;21012;-66
2022/07/01 04:56:28;;;;;;;6.53;1.30;;;17.40;83.60;;;;;;5063483;28;20220;-66
2022/07/01 04:58:55;;;;;;;3.95;1.60;;;17.40;79.60;;;;;;5065451;28;20220;-66
2022/07/01 05:01:22;;;;;;;1.20;0.93;;;17.30;78.50;;;;;;5069160;28;20230;-67
2022/07/01 05:03:49;;;;;;;3.20;1.23;;;17.30;81.90;;;;;;5066016;28;20232;-66
2022/07/01 05:06:16;;;;;;;1.70;1.10;;;;;;;;;;5065384;28;20212;-66
2022/07/01 05:08:44;;;;;;;1.90;1.23;;;17.20;90.40;;;;;;5050504;28;20251;-66
2022/07/01 05:11:11;;;;;;;2.65;1.60;;;18.70;92.50;;;;;;5042932;28;20227;-67
2022/07/01 05:13:38;;;;;;;1.40;1.30;;;17.10;91.40;;;;;;5044981;28;20484;-66
2022/07/01 05:16:08;;;;;;;1.88;1.40;;;17.10;91.20;;;;;;5039570;28;20270;-66
2022/07/01 05:24:07;;;;;;;1.45;1.23;;;16.80;94.50;;;;;;5064346;28;20247;-67
2022/07/01 05:26:34;;;;;;;1.90;1.13;;;17.00;92.50;;;;;;5049480;28;20212;-66
2022/07/01 05:29:02;;;;;;;2.05;1.40;;;16.80;91.90;;;;;;5069127;28;20204;-67
2022/07/01 05:31:28;;;;;;;1.52;1.33;;;16.80;94.70;;;;;;5049508;28;20316;-66
2022/07/01 05:33:55;;;;;;;4.22;1.70;;;16.80;94.40;;;;;;5059616;28;20227;-66
2022/07/01 05:36:22;;;;;;;1.98;1.42;;;16.60;94.70;;;;;;5066080;28;20212;-66
2022/07/01 05:38:49;;;;;;;3.28;1.50;;;16.80;93.50;;;;;;5065304;28;20196;-65
2022/07/01 05:41:17;;;;;;;1.67;1.52;;;16.80;93.50;;;;;;5042303;28;20253;-66
2022/07/01 05:43:44;;;;;;;2.90;1.42;;;16.90;93.60;;;;;;5067432;28;20193;-66
2022/07/01 05:46:11;;;;;;;1.90;1.52;;;16.80;92.50;;;;;;5058949;28;20208;-67
2022/07/01 05:48:37;;;;;;;2.78;1.60;;;16.80;95.30;;;;;;5048300;28;20211;-66
2022/07/01 05:51:04;;;;;;;1.73;1.63;;;16.80;94.30;;;;;;5071710;28;20223;-66
2022/07/01 05:53:31;;;;;;;1.77;1.67;;;16.90;94.80;;;;;;5068559;28;20232;-67
2022/07/01 05:55:58;;;;;;;3.15;2.13;;;16.80;94.50;;;;;;5058095;28;20215;-67
2022/07/01 06:13:07;;;;;;;2.38;2.08;;;17.20;88.70;;;;;;5053480;27;20662;-65
2022/07/01 06:15:34;;;;;;;2.28;1.80;;;16.80;92.30;;;;;;5063282;28;20643;-66
2022/07/01 06:18:01;;;;;;;2.83;1.92;;;16.60;94.60;;;;;;5034730;28;20215;-67
2022/07/01 06:20:29;;;;;;;1.63;1.50;;;16.80;92.50;;;;;;5050064;28;20588;-67
2022/07/01 06:22:57;;;;;;;3.15;2.28;;;16.80;93.70;;;;;;5051998;28;20200;-67
2022/07/01 06:25:24;;;;;;;1.60;1.50;;;17.00;92.50;;;;;;5059986;28;20201;-68
2022/07/01 06:27:51;;;;;;;2.10;1.90;;;17.20;93.70;;;;;;5060540;28;20200;-67
2022/07/01 06:30:19;;;;;;;4.15;2.42;;;17.20;89.40;;;;;;5048668;28;20223;-66
2022/07/01 06:32:46;;;;;;;2.35;1.80;;;17.30;90.10;;;;;;5049348;28;20219;-67
2022/07/01 06:35:12;;;;;;;3.15;2.25;;;17.20;92.30;;;;;;5027988;28;20235;-68
2022/07/01 06:37:39;;;;;;;3.33;1.80;;;17.40;89.80;;;;;;5062021;28;20205;-65
2022/07/01 06:40:07;;;;;;;3.00;1.88;;;17.50;89.60;;;;;;5050511;28;20201;-65
2022/07/01 06:42:34;;;;;;;10.40;2.60;;;17.50;90.00;;;;;;5043682;28;20221;-66
2022/07/01 06:45:02;;;;;;;4.07;1.90;;;17.50;83.70;;;;;;5049804;28;20197;-65
2022/07/01 06:47:30;;;;;;;2.35;1.90;;;15.00;69.20;;;;;;5046260;28;20686;-66
2022/07/01 06:49:57;;;;;;;3.08;1.98;;;17.60;66.90;;;;;;5039020;28;20205;-65
2022/07/01 06:52:24;;;;;;;3.00;1.67;;;17.50;70.90;;;;;;5045986;28;20208;-66
2022/07/01 06:54:51;;;;;;;2.63;2.15;;;17.60;68.30;;;;;;5048305;28;20223;-66
2022/07/01 06:57:18;;;;;;;2.33;1.80;;;17.20;70.00;;;;;;5031586;28;20247;-66
2022/07/01 06:59:45;;;;;;;3.55;2.28;;;17.40;66.90;;;;;;5055948;28;20216;-66
2022/07/01 07:02:12;;;;;;;2.40;2.03;;;17.40;67.80;;;;;;5053329;28;20232;-66
2022/07/01 07:04:40;;;;;;;4.22;2.35;;;17.70;79.30;;;;;;5033772;28;20205;-66
2022/07/01 07:07:07;;;;;;;2.50;2.30;;;17.40;76.60;;;;;;5057925;28;20204;-66
2022/07/01 07:09:34;;;;;;;3.05;2.50;;;17.90;83.30;;;;;;5057230;28;20204;-66
2022/07/01 07:12:00;;;;;;;7.05;3.40;;;17.40;78.70;;;;;;5045977;28;20231;-66
2022/07/01 07:14:27;;;;;;;3.97;3.20;;;17.40;79.50;;;;;;5046387;28;20205;-65
2022/07/01 07:16:55;;;;;;;3.45;3.03;;;17.50;80.90;;;;;;5043377;28;20221;-66
2022/07/01 07:19:21;;;;;;;3.92;2.85;;;17.30;76.60;;;;;;5038069;28;20621;-66
2022/07/01 07:21:50;;;;;;;6.03;2.97;;;17.20;75.20;;;;;;5026982;28;20521;-67
2022/07/01 07:24:17;;;;;;;4.63;3.70;;;17.20;75.70;;;;;;5045218;28;20203;-66
2022/07/01 07:26:43;;;;;;;4.75;3.85;;;17.20;76.60;;;;;;5035818;28;20695;-66
2022/07/01 07:29:10;;;;;;;3.80;3.38;;;17.00;80.70;;;;;;5036302;28;20225;-67
2022/07/01 07:31:37;;;;;;;8.70;3.92;;;17.20;78.30;;;;;;5045126;28;20252;-68
2022/07/01 07:34:04;;;;;;;5.57;3.72;;;17.30;77.20;;;;;;5034349;28;20220;-67
2022/07/01 07:36:31;;;;;;;5.40;4.03;;;17.10;74.00;;;;;;5023439;28;20209;-66
2022/07/01 07:38:59;;;;;;;3.85;3.33;;;17.10;73.30;;;;;;5036263;28;20306;-66
2022/07/01 07:41:26;;;;;;;6.28;4.20;;;17.40;75.50;;;;;;5040396;28;20263;-67
2022/07/01 07:43:53;;;;;;;6.13;4.68;;;17.10;69.80;;;;;;5018893;28;20248;-67
2022/07/01 07:46:20;;;;;;;5.20;3.75;;;16.80;72.80;;;;;;5040859;28;20217;-66
2022/07/01 07:48:47;;;;;;;5.25;4.50;;;17.10;65.60;;;;;;5021843;28;20761;-66
2022/07/01 07:51:17;;;;;;;5.28;4.40;;;16.90;68.70;;;;;;5024240;28;22215;-67
2022/07/01 07:53:44;;;;;;;5.03;4.15;;;17.10;70.00;;;;;;5015533;28;21039;-67
2022/07/01 07:56:12;;;;;;;5.28;4.30;;;17.10;66.30;;;;;;5049163;28;20213;-67
2022/07/01 07:58:41;;;;;;;5.63;4.68;;;17.30;72.20;;;;;;5032186;28;20224;-67
2022/07/01 08:01:09;;;;;;;5.72;4.47;;;17.10;78.70;;;;;;5038931;28;20244;-66
2022/07/01 08:03:36;;;;;;;7.03;4.68;;;;;;;;;;5041785;28;20627;-66
2022/07/01 08:06:03;;;;;;;6.45;5.18;;;17.10;73.30;;;;;;5039180;28;20576;-67
2022/07/01 08:08:30;;;;;;;9.25;5.80;;;17.20;78.40;;;;;;5033965;28;20649;-66
2022/07/01 08:10:57;;;;;;;8.20;6.10;;;17.20;80.10;;;;;;5045437;28;20423;-67
2022/07/01 08:13:25;;;;;;;7.03;6.32;;;17.10;86.60;;;;;;5044260;28;20204;-66
2022/07/01 08:15:52;;;;;;;9.15;6.30;;;17.40;89.30;;;;;;5041629;28;20215;-67
2022/07/01 08:18:19;;;;;;;7.30;6.00;;;17.40;88.00;;;;;;5045306;28;20710;-66
2022/07/01 08:20:46;;;;;;;9.60;6.88;;;17.50;91.00;;;;;;5034954;28;20223;-67
2022/07/01 08:23:13;;;;;;;11.75;7.10;;;17.40;89.70;;;;;;5047505;28;20245;-66
2022/07/01 08:25:40;;;;;;;8.57;7.65;;;17.40;88.80;;;;;;5027198;28;20703;-67
2022/07/01 08:28:07;;;;;;;8.50;7.60;;;17.60;92.00;;;;;;5049385;28;20200;-67
2022/07/01 08:30:35;;;;;;;8.85;8.00;;;17.60;92.50;;;;;;5026867;28;20251;-67
2022/07/01 08:33:02;;;;;;;9.07;7.80;;;17.40;91.30;;;;;;5046270;28;20205;-67
2022/07/01 08:35:29;;;;;;;11.23;8.10;;;17.40;92.10;;;;;;5047031;28;20200;-67
2022/07/01 08:37:56;;;;;;;11.43;8.57;;;15.40;90.00;;;;;;5040955;28;20205;-66
2022/07/01 08:40:26;;;;;;;10.43;9.18;;;17.50;91.70;;;;;;5035966;28;20251;-66
2022/07/01 08:42:57;;;;;;;10.27;9.18;;;17.50;90.70;;;;;;5047814;28;20233;-66
2022/07/01 08:45:25;;;;;;;11.60;9.13;;;17.10;88.10;;;;;;5039691;28;20251;-66
2022/07/01 08:47:57;;;;;;;9.77;8.80;;;17.30;86.40;;;;;;5040370;28;20201;-67
2022/07/01 08:50:25;;;;;;;11.95;9.02;;;17.50;90.80;;;;;;5044350;28;20299;-66
2022/07/01 08:52:52;;;;;;;10.30;8.55;;;18.30;91.30;;;;;;5038387;28;20220;-67
2022/07/01 08:55:20;;;;;;;11.27;9.88;;;17.20;79.80;;;;;;5036037;28;20227;-67
2022/07/01 08:57:46;;;;;;;13.18;9.93;;;17.20;80.70;;;;;;5044523;28;20204;-67
2022/07/01 09:00:14;;;;;;;11.48;9.73;;;17.30;84.50;;;;;;5049057;28;20212;-67
2022/07/01 09:02:54;;;;;;;18.42;10.65;;;17.20;82.20;;;;;;5026780;28;20236;-68
2022/07/01 09:05:21;;;;;;;12.77;10.23;;;17.20;80.70;;;;;;5049349;28;20208;-67
2022/07/01 09:07:49;;;;;;;12.45;10.27;;;17.30;87.30;;;;;;5046365;28;20207;-67
2022/07/01 09:10:18;;;;;;;14.60;10.50;;;17.40;86.30;;;;;;5025083;28;20224;-67
2022/07/01 09:12:45;;;;;;;14.63;11.43;;;17.40;86.50;;;;;;5043058;28;20282;-67
2022/07/01 09:15:24;;;;;;;10.82;9.70;;;17.40;85.90;;;;;;5051603;28;20193;-67
2022/07/01 09:17:52;;;;;;;13.10;10.18;;;17.10;86.40;;;;;;5027596;28;20320;-67
2022/07/01 09:20:27;;;;;;;11.30;9.85;;;15.80;83.80;;;;;;5051095;28;20204;-67
2022/07/01 09:23:02;;;;;;;11.05;9.95;;;17.30;78.10;;;;;;5048560;28;21042;-66
2022/07/01 09:25:34;;;;;;;15.20;10.52;;;17.30;76.40;;;;;;5031434;28;20201;-67
2022/07/01 09:28:10;;;;;;;11.15;9.38;;;17.50;70.20;;;;;;5046616;28;20197;-66
2022/07/01 09:30:38;;;;;;;9.82;8.82;;;17.30;67.60;;;;;;5045864;28;20211;-67
2022/07/01 09:33:11;;;;;;;13.52;9.82;;;17.40;65.10;;;;;;5038737;28;20192;-67
2022/07/01 09:35:40;;;;;;;12.43;9.52;;;17.40;65.30;;;;;;5023346;28;20211;-67
2022/07/01 09:38:08;;;;;;;12.88;9.82;;;17.40;67.60;;;;;;5050331;28;20199;-66
2022/07/01 09:40:48;;;;;;;13.23;10.85;;;17.30;75.40;;;;;;5023161;28;20205;-67
2022/07/01 09:43:16;;;;;;;13.20;11.15;;;17.50;74.10;;;;;;5050778;28;20220;-66
2022/07/01 09:45:51;;;;;;;14.20;10.95;;;17.50;77.40;;;;;;5040179;28;20839;-66
2022/07/01 09:48:19;;;;;;;11.50;10.07;;;17.80;76.10;;;;;;5045103;28;20204;-66
2022/07/01 09:50:46;;;;;;;13.40;9.80;;;17.60;67.50;;;;;;5028826;28;20406;-67
2022/07/01 09:53:13;;;;;;;13.15;10.38;;;17.40;64.90;;;;;;5050144;28;20200;-66
2022/07/01 09:55:41;;;;;;;13.15;10.90;;;;;;;;;;5023721;28;20899;-67
2022/07/01 09:58:08;;;;;;;14.48;10.63;;;17.50;63.00;;;;;;5047285;28;20263;-67
2022/07/01 10:00:37;;;;;;;11.57;10.32;;;17.50;59.90;;;;;;5043907;28;20699;-67
2022/07/01 10:03:05;;;;;;;10.75;9.43;;;;;;;;;;5032344;28;20236;-67
2022/07/01 10:05:39;;;;;;;13.77;10.80;;;17.60;63.70;;;;;;5036131;28;20232;-67
2022/07/01 10:08:20;;;;;;;12.18;10.00;;;17.50;56.10;;;;;;5041171;28;20999;-67
2022/07/01 10:10:52;;;;;;;16.23;10.50;;;19.80;66.20;;;;;;5012953;28;20209;-67
2022/07/01 10:13:24;;;;;;;14.95;10.18;;;17.70;60.50;;;;;;4994304;28;20198;-67
2022/07/01 10:15:52;;;;;;;13.65;9.38;;;17.50;66.10;;;;;;5009910;28;20571;-67
2022/07/01 10:18:23;;;;;;;12.02;9.75;;;17.80;61.20;;;;;;5012086;28;20202;-67
2022/07/01 10:20:53;;;;;;;12.73;9.55;;;17.80;63.10;;;;;;4984980;28;20219;-67
2022/07/01 10:23:22;;;;;;;12.50;9.52;;;17.90;60.90;;;;;;5003419;28;20221;-67
2022/07/01 10:25:51;;;;;;;12.32;9.68;;;17.90;56.80;;;;;;4982569;28;20222;-67
2022/07/01 10:28:27;;;;;;;14.77;9.73;;;18.00;59.60;;;;;;4986276;28;20233;-67
2022/07/01 10:30:56;;;;;;;19.25;10.07;;;17.90;49.10;;;;;;4987637;28;20230;-67
2022/07/01 10:33:36;;;;;;;13.13;9.48;;;18.00;50.90;;;;;;4999502;28;20258;-66
2022/07/01 10:36:16;;;;;;;10.10;9.00;;;18.10;53.80;;;;;;4977017;28;20962;-66
2022/07/01 10:39:10;;;;;;;13.68;10.05;;;18.10;54.50;;;;;;4999711;28;20213;-67
2022/07/01 10:41:39;;;;;;;13.05;9.13;;;18.10;47.20;;;;;;4992565;28;20226;-67
2022/07/01 10:44:07;;;;;;;13.18;9.20;;;17.60;42.50;;;;;;4980054;28;20652;-67
2022/07/01 10:46:44;;;;;;;10.93;8.63;;;18.30;44.30;;;;;;5000750;28;20233;-67
2022/07/01 10:49:13;;;;;;;10.05;8.95;;;18.20;36.80;;;;;;5006237;28;20304;-67
2022/07/01 10:51:59;;;;;;;14.57;8.38;;;17.90;20.50;;;;;;4987169;28;20972;-67
2022/07/01 10:54:48;;;;;;;10.68;8.13;;;17.90;21.40;;;;;;5000798;28;20226;-67
2022/07/01 10:57:33;;;;;;;10.40;7.60;;;18.10;22.10;;;;;;4986293;28;20221;-67
2022/07/01 11:00:30;;;;;;;10.82;8.93;;;18.00;18.80;;;;;;4985856;28;20705;-67
2022/07/01 11:03:05;;;;;;;11.30;8.25;;;18.10;23.00;;;;;;5003771;28;20286;-67
2022/07/01 11:05:32;;;;;;;11.95;8.70;;;18.10;19.80;;;;;;4996035;28;20226;-67
2022/07/01 11:08:00;;;;;;;12.05;8.10;;;18.10;17.70;;;;;;4995137;28;20237;-67
2022/07/01 11:10:27;;;;;;;9.57;8.55;;;18.00;19.50;;;;;;5001527;28;20210;-66
2022/07/01 11:12:54;;;;;;;9.88;8.63;;;18.10;13.70;;;;;;5016293;28;20244;-67
2022/07/01 11:15:22;;;;;;;11.38;8.43;;;18.30;13.80;;;;;;5035728;28;20247;-67
2022/07/01 11:17:50;;;;;;;9.18;7.32;;;18.50;3.40;;;;;;5048537;28;20532;-67
2022/07/01 11:20:17;;;;;;;7.78;6.85;;;18.30;1.00;;;;;;5056654;28;20193;-67
2022/07/01 11:22:44;;;;;;;12.02;8.77;;;18.20;1.00;;;;;;5017667;28;20268;-67
2022/07/01 11:25:14;;;;;;;10.68;8.65;;;18.20;1.00;;;;;;5052629;28;20197;-66
2022/07/01 11:27:45;;;;;;;11.30;7.95;;;17.90;1.00;;;;;;5024959;28;20212;-67
2022/07/01 11:30:13;;;;;;;9.15;7.38;;;18.30;1.00;;;;;;5011253;28;20797;-67
2022/07/01 11:32:43;;;;;;;8.50;6.78;;;18.40;1.00;;;;;;5035154;28;20646;-66
2022/07/01 11:40:52;;;;;;;10.25;7.28;;;18.80;1.00;;;;;;5022591;28;20260;-66
2022/07/01 11:43:21;;;;;;;8.85;7.10;;;19.10;1.00;;;;;;5020595;28;20271;-66
2022/07/01 11:45:49;;;;;;;9.65;6.95;;;19.00;1.00;;;;;;5030972;28;20454;-66
2022/07/01 11:48:32;;;;;;;9.63;6.40;;;19.10;99.90;;;;;;5034896;28;20733;-66
2022/07/01 11:51:01;;;;;;;9.27;6.53;;;18.90;99.90;;;;;;5024686;28;20221;-67
2022/07/01 11:53:28;;;;;;;8.57;6.70;;;18.70;60.60;;;;;;5017782;28;20221;-67
2022/07/01 11:55:57;;;;;;;17.52;6.82;;;19.00;4.60;;;;;;5021621;28;20220;-67
2022/07/01 11:58:24;;;;;;;13.25;6.15;;;;;;;;;;4985784;28;20758;-66
2022/07/01 12:00:51;;;;;;;8.35;5.47;;;19.10;1.00;;;;;;5022411;28;20331;-66
2022/07/01 12:03:31;;;;;;;7.43;5.30;;;19.20;1.00;;;;;;5015434;28;20229;-66
2022/07/01 12:05:59;;;;;;;6.80;5.97;;;19.20;1.00;;;;;;5030426;28;20220;-67
2022/07/01 12:08:26;;;;;;;6.03;5.43;;;19.30;99.90;;;;;;5003901;28;20217;-66
2022/07/01 12:10:53;;;;;;;8.63;5.85;;;19.40;1.00;;;;;;5018975;28;20221;-66
2022/07/01 12:13:25;;;;;;;8.25;5.45;;;19.30;99.90;;;;;;4996123;28;20220;-67
2022/07/01 12:15:52;;;;;;;7.45;5.18;;;19.40;99.90;;;;;;5027708;28;21190;-66
2022/07/01 12:18:19;;;;;;;8.20;4.18;;;19.40;99.90;;;;;;5007025;28;20220;-66
2022/07/01 12:20:50;;;;;;;6.30;4.10;;;19.50;99.90;;;;;;5029543;28;20213;-66
2022/07/01 12:23:18;;;;;;;7.45;3.75;;;19.50;99.90;;;;;;5008022;28;20313;-66
2022/07/01 12:25:51;;;;;;;3.95;3.42;;;19.40;1.00;;;;;;5028490;28;20216;-66
2022/07/01 12:28:34;;;;;;;5.97;4.35;;;19.10;1.00;;;;;;5024259;28;21032;-66
2022/07/01 12:31:07;;;;;;;5.30;3.88;;;19.30;1.00;;;;;;5256303;22;20341;-67
2022/07/01 12:33:35;;;;;;;7.30;4.68;;;19.30;1.00;;;;;;5027884;28;20729;-67
2022/07/01 12:36:04;;;;;;;10.25;4.05;;;19.30;1.00;;;;;;5025013;28;20951;-67
2022/07/01 12:38:31;;;;;;;5.10;4.40;;;19.30;1.00;;;;;;5032251;28;20200;-67
2022/07/01 12:40:58;;;;;;;5.95;4.53;;;19.40;10.00;;;;;;5028109;28;20312;-67
2022/07/01 12:43:28;;;;;;;10.32;4.60;;;19.50;99.90;;;;;;5035609;28;21788;-67
2022/07/01 12:45:58;;;;;;;6.50;4.25;;;19.40;99.90;;;;;;5022347;28;20224;-67
2022/07/01 12:48:25;;;;;;;5.97;4.55;;;20.10;1.00;;;;;;5035775;28;20883;-67
2022/07/01 12:50:56;;;;;;;9.38;5.35;;;19.40;99.90;;;;;;5053200;28;20223;-67
2022/07/01 12:53:25;;;;;;;5.32;4.40;;;20.20;1.00;;;;;;5029082;28;20702;-65
2022/07/01 12:55:54;;;;;;;4.60;4.00;;;19.40;1.00;;;;;;5042608;28;20227;-64
2022/07/01 12:58:23;;;;;;;6.55;3.80;;;19.40;1.00;;;;;;5033281;28;20215;-65
2022/07/01 13:00:52;;;;;;;4.78;4.22;;;19.20;1.00;;;;;;5010645;28;20706;-66
2022/07/01 13:03:22;;;;;;;10.45;4.35;;;19.40;1.00;;;;;;5048057;28;20662;-66
2022/07/01 13:05:49;;;;;;;7.03;4.60;;;19.50;1.00;;;;;;5049277;28;20247;-65
2022/07/01 13:08:17;;;;;;;6.28;4.75;;;19.50;1.00;;;;;;5025121;28;20224;-67
2022/07/01 13:10:45;;;;;;;5.50;4.63;;;19.30;1.00;;;;;;5037101;22;20228;-66
2022/07/01 13:13:12;;;;;;;7.20;4.07;;;19.60;1.00;;;;;;5060509;27;20223;-66
2022/07/01 13:15:39;;;;;;;4.63;3.72;;;19.70;1.00;;;;;;5061335;27;20355;-66
2022/07/01 13:18:07;;;;;;;8.25;5.68;;;19.50;1.00;;;;;;5075011;27;20199;-66
2022/07/01 13:20:36;;;;;;;6.95;4.72;;;19.60;99.90;;;;;;5086932;27;20276;-66
2022/07/01 13:23:02;;;;;;;8.77;5.05;;;19.50;99.90;;;;;;5084130;27;20616;-66
2022/07/01 13:25:29;;;;;;;7.75;5.65;;;19.60;1.00;;;;;;5077767;27;20231;-66
2022/07/01 13:27:56;;;;;;;10.57;5.10;;;19.50;1.00;;;;;;5095675;27;20195;-66
2022/07/01 13:30:23;;;;;;;7.03;5.65;;;19.50;1.00;;;;;;5076047;28;20208;-66
2022/07/01 13:32:53;;;;;;;7.90;4.80;;;19.40;1.00;;;;;;5085910;27;20203;-66
2022/07/01 13:35:22;;;;;;;6.82;4.30;;;19.30;1.00;;;;;;5079356;27;20200;-67
2022/07/01 13:37:50;;;;;;;7.15;3.58;;;19.30;1.00;;;;;;5098148;27;20210;-66
2022/07/01 13:40:17;;;;;;;3.72;3.08;;;19.30;99.90;;;;;;5065117;27;20654;-67
2022/07/01 13:42:44;;;;;;;3.53;2.83;;;19.20;89.60;;;;;;5092721;27;20199;-66
2022/07/01 13:45:13;;;;;;;5.95;3.05;;;19.30;4.50;;;;;;5081749;27;20195;-67
2022/07/01 13:47:40;;;;;;;5.70;3.90;;;19.20;1.00;;;;;;5083744;28;20224;-66
2022/07/01 13:50:08;;;;;;;5.95;4.47;;;19.20;1.00;;;;;;5073943;27;20210;-66
2022/07/01 13:52:35;;;;;;;4.75;3.65;;;19.20;1.00;;;;;;5087410;27;21753;-65
2022/07/01 13:55:03;;;;;;;6.72;4.05;;;19.20;1.00;;;;;;5079174;27;20234;-65
2022/07/01 13:57:30;;;;;;;5.07;3.70;;;19.20;48.70;;;;;;5082009;27;20199;-69
2022/07/01 13:59:57;;;;;;;3.45;2.90;;;;;;;;;;5083430;28;20581;-65
2022/07/01 14:02:24;;;;;;;4.57;3.22;;;19.20;99.90;;;;;;5082784;28;20294;-66
2022/07/01 14:04:51;;;;;;;6.00;3.70;;;19.60;99.90;;;;;;5081080;28;20230;-66
2022/07/01 14:07:18;;;;;;;5.43;3.03;;;19.20;99.90;;;;;;5063097;28;21040;-66
2022/07/01 14:09:46;;;;;;;5.32;3.28;;;19.10;1.00;;;;;;5099359;28;20201;-65
2022/07/01 14:12:15;;;;;;;6.03;3.60;;;19.20;1.00;;;;;;5069138;28;20234;-67
2022/07/01 14:14:42;;;;;;;7.78;4.00;;;19.20;1.00;;;;;;5096255;28;20223;-66
2022/07/01 14:17:09;;;;;;;7.60;3.58;;;19.30;12.50;;;;;;5071403;28;20978;-66
2022/07/01 14:19:36;;;;;;;5.82;3.70;;;19.20;94.70;;;;;;5096432;28;20191;-66
2022/07/01 14:22:03;;;;;;;4.82;3.80;;;19.50;94.50;;;;;;5061644;28;20212;-67
2022/07/01 14:24:29;;;;;;;6.68;3.53;;;19.50;99.90;;;;;;5100392;27;20713;-66
2022/07/01 14:26:56;;;;;;;4.45;3.67;;;19.60;99.90;;;;;;5088241;27;20206;-66
2022/07/01 14:29:25;;;;;;;4.40;3.42;;;19.80;99.90;;;;;;5095561;27;21227;-66
2022/07/01 14:31:51;;;;;;;6.80;3.83;;;19.90;99.90;;;;;;5085139;27;20871;-65
2022/07/01 14:34:19;;;;;;;8.57;3.90;;;;;;;;;;5087697;27;20783;-66
2022/07/01 14:36:45;;;;;;;8.70;4.55;;;19.90;99.90;;;;;;5093572;27;20202;-65
2022/07/01 14:39:12;;;;;;;9.15;4.60;;;20.00;20.10;;;;;;5079430;27;20276;-66
2022/07/01 14:41:39;;;;;;;7.15;3.97;;;19.90;1.00;;;;;;5088580;27;20219;-67
2022/07/01 14:44:06;;;;;;;8.93;3.85;;;19.80;1.00;;;;;;5086461;27;20216;-65
2022/07/01 14:46:34;;;;;;;5.85;4.47;;;19.70;99.90;;;;;;5083886;27;20673;-66
2022/07/01 14:49:01;;;;;;;4.03;3.60;;;19.80;50.10;;;;;;5086627;27;20203;-66
2022/07/01 14:51:28;;;;;;;5.22;3.50;;;19.90;99.90;;;;;;5095270;27;20473;-65
2022/07/01 14:53:54;;;;;;;6.13;3.40;;;19.90;99.90;;;;;;5082542;27;20202;-66
2022/07/01 14:56:21;;;;;;;11.27;4.32;;;20.10;99.90;;;;;;5093440;27;20569;-65
2022/07/01 14:58:48;;;;;;;6.22;3.78;;;20.20;99.90;;;;;;5084204;27;20204;-66
2022/07/01 15:01:15;;;;;;;4.07;3.45;;;20.30;99.90;;;;;;5066463;27;20775;-66
2022/07/01 15:03:43;;;;;;;7.15;3.35;;;20.40;99.90;;;;;;5084272;27;20259;-65
2022/07/01 15:06:10;;;;;;;4.25;3.28;;;20.40;99.90;;;;;;5077109;27;20207;-67
2022/07/01 15:08:37;;;;;;;5.97;3.40;;;20.50;1.00;;;;;;5078708;27;20196;-65
2022/07/01 15:11:05;;;;;;;6.43;2.97;;;;;;;;;;5094847;27;20291;-65
2022/07/01 15:13:32;;;;;;;6.75;3.20;;;20.40;1.00;;;;;;5083952;27;20212;-66
2022/07/01 15:15:59;;;;;;;3.10;2.50;;;20.10;1.00;;;;;;5092095;27;20290;-66
2022/07/01 15:18:27;;;;;;;7.13;2.90;;;20.10;1.00;;;;;;5087250;27;20195;-67
2022/07/01 15:20:55;;;;;;;9.70;3.47;;;20.10;1.00;;;;;;5081993;28;20210;-65
2022/07/01 15:23:22;;;;;;;4.72;3.40;;;20.10;1.00;;;;;;5081728;27;20200;-65
2022/07/01 15:25:50;;;;;;;5.60;3.45;;;20.10;1.00;;;;;;5093484;27;20285;-66
2022/07/01 15:28:16;;;;;;;3.30;2.95;;;20.00;1.00;;;;;;5097888;27;20202;-66
2022/07/01 15:30:46;;;;;;;5.50;3.10;;;20.00;1.00;;;;;;5080830;27;20200;-67
2022/07/01 15:33:13;;;;;;;3.75;2.90;;;20.00;1.00;;;;;;5084548;27;21154;-66
2022/07/01 15:35:40;;;;;;;4.47;3.20;;;19.90;1.00;;;;;;5082546;27;20209;-66
2022/07/01 15:38:08;;;;;;;9.25;3.47;;;19.90;1.00;;;;;;5094818;27;20210;-65
2022/07/01 15:40:35;;;;;;;3.72;3.08;;;19.80;1.00;;;;;;5079482;27;20204;-66
2022/07/01 15:43:01;;;;;;;4.95;3.28;;;19.70;1.00;;;;;;5091201;27;20199;-65
2022/07/01 15:45:28;;;;;;;5.47;3.17;;;19.70;1.00;;;;;;5069354;27;20227;-65
2022/07/01 15:48:08;;;;;;;5.57;3.15;;;19.60;1.00;;;;;;5095945;27;20203;-64
2022/07/01 15:50:37;;;;;;;4.57;3.03;;;19.50;1.00;;;;;;5080829;27;20226;-64
2022/07/01 15:53:04;;;;;;;6.13;2.72;;;19.80;1.00;;;;;;5099731;27;20249;-65
2022/07/01 15:55:32;;;;;;;3.40;2.80;;;19.90;1.00;;;;;;5079542;27;20206;-64
2022/07/01 15:57:59;;;;;;;3.72;2.50;;;19.90;1.00;;;;;;5099026;27;20191;-66
2022/07/01 16:00:27;;;;;;;6.22;2.53;;;19.90;1.00;;;;;;5080417;27;20195;-65
2022/07/01 16:02:53;;;;;;;3.85;2.30;;;19.90;1.00;;;;;;5097118;27;20307;-64
2022/07/01 16:05:20;;;;;;;6.80;2.88;;;19.70;1.00;;;;;;5091396;27;20223;-66
2022/07/01 16:07:52;;;;;;;5.80;2.63;;;19.70;1.00;;;;;;5089551;27;20682;-65
2022/07/01 16:10:41;;;;;;;4.80;2.55;;;19.70;99.90;;;;;;5076081;27;26099;-64
2022/07/01 16:13:11;;;;;;;3.13;2.80;;;19.70;99.90;;;;;;5097493;27;20320;-64
2022/07/01 16:15:39;;;;;;;4.80;2.85;;;19.80;99.90;;;;;;5082704;27;20546;-65
2022/07/01 16:18:08;;;;;;;5.15;3.22;;;19.60;1.00;;;;;;5099750;27;20200;-64
2022/07/01 16:20:40;;;;;;;3.17;2.42;;;19.60;1.00;;;;;;5086587;27;20204;-65
2022/07/01 16:23:09;;;;;;;3.35;2.53;;;19.50;17.20;;;;;;5082807;27;20199;-65
2022/07/01 16:25:39;;;;;;;10.18;3.25;;;19.70;1.00;;;;;;5078989;27;20223;-65
2022/07/01 16:28:08;;;;;;;4.90;2.80;;;19.70;1.00;;;;;;5094821;27;20249;-65
2022/07/01 16:30:35;;;;;;;5.65;2.58;;;19.70;1.00;;;;;;5081765;27;20211;-64
2022/07/01 16:33:03;;;;;;;4.50;2.33;;;20.00;99.90;;;;;;5094101;27;20199;-64
2022/07/01 16:35:38;;;;;;;8.32;2.50;;;19.80;99.90;;;;;;5090805;27;20223;-66
2022/07/01 16:38:07;;;;;;;4.97;2.30;;;19.80;99.90;;;;;;5089728;27;20207;-65
2022/07/01 16:40:38;;;;;;;6.43;3.08;;;19.70;99.90;;;;;;5090097;27;20222;-64
2022/07/01 16:43:07;;;;;;;3.30;2.60;;;19.60;99.90;;;;;;5079199;27;20207;-65
2022/07/01 16:45:39;;;;;;;3.85;2.55;;;19.70;1.00;;;;;;5076877;27;20231;-65
2022/07/01 16:48:07;;;;;;;4.05;3.05;;;21.00;1.00;;;;;;5072602;27;21204;-65
2022/07/01 16:50:39;;;;;;;7.50;2.55;;;19.50;1.00;;;;;;5094812;27;20204;-66
2022/07/01 16:53:13;;;;;;;3.03;2.03;;;19.50;1.00;;;;;;5078701;27;20253;-66
2022/07/01 16:55:43;;;;;;;4.45;2.20;;;19.40;1.00;;;;;;5096861;27;20333;-65
2022/07/01 16:58:14;;;;;;;4.30;2.05;;;19.50;1.00;;;;;;5079325;27;20199;-65
2022/07/01 17:00:41;;;;;;;10.23;2.28;;;19.50;1.00;;;;;;5088694;27;20196;-66
2022/07/01 17:03:08;;;;;;;6.93;2.15;;;19.60;1.00;;;;;;5085632;27;20206;-65
2022/07/01 17:05:35;;;;;;;4.63;2.28;;;19.80;1.00;;;;;;5097221;27;20235;-66
2022/07/01 17:08:03;;;;;;;2.80;2.03;;;19.80;99.90;;;;;;5085566;27;20199;-66
2022/07/01 17:10:32;;;;;;;3.72;2.05;;;19.90;99.90;;;;;;5083338;27;20199;-64
2022/07/01 17:13:01;;;;;;;4.82;2.30;;;19.70;99.90;;;;;;5079926;27;20226;-64
2022/07/01 17:15:29;;;;;;;3.10;2.10;;;19.80;99.90;;;;;;5094721;27;20191;-65
2022/07/01 17:17:56;;;;;;;4.90;2.40;;;19.80;99.90;;;;;;5081517;27;20195;-65
2022/07/01 17:20:23;;;;;;;5.25;2.13;;;19.80;99.90;;;;;;5092869;27;20286;-65
2022/07/01 17:22:57;;;;;;;6.80;2.35;;;19.80;99.90;;;;;;5082468;27;20203;-66
2022/07/01 17:25:29;;;;;;;5.88;2.05;;;19.80;99.90;;;;;;5078904;27;20227;-66
2022/07/01 17:28:44;;;;;;;4.70;2.38;;;19.80;99.90;;;;;;5073175;27;20286;-65
2022/07/01 17:31:19;;;;;;;5.10;2.00;;;19.80;99.90;;;;;;5049309;28;20903;-65
2022/07/01 17:33:47;;;;;;;7.10;1.83;;;20.10;99.90;;;;;;5024793;27;20256;-65